Terminal Aerodrome Forecast
Issued by NWS

Home | Current Version | Previous Version | Text Only | Print | Product List | Glossary On
Versions: 1 2 3 4 5 6 7 8 9 10 11 12 13 14 15 16 17 18 19 20 21 22 23 24 25
081
FTUS42 KGSP 230531
TAFAND
TAF
KAND 230531Z 2306/2406 19005KT 5SM BR BKN025
     FM231300 23008KT P6SM SCT080
     FM231700 22012G20KT P6SM SCT050
     FM240200 19011G20KT P6SM BKN050 PROB30 2402/2406 4SM -TSRA
      OVC025CB=

USA.gov is the U.S. government's official web portal to all federal, state and local government web resources and services.